Time;durP1;ratioP1;P1;durP2;ratioP2;P2;SDS_P1;SDS_P2;PMS_P1;PMS_P2;Temp;Humidity;BMP_temperature;BMP_pressure;BME280_temperature;BME280_humidity;BME280_pressure;Samples;Min_cycle;Max_cycle;Signal;HPM_P1;HPM_P2
2022/01/01 00:00:06;;;;;;;0.40;0.40;;;;;;;13.37;76.63;101249.72;683322;28;21550;-75
2022/01/01 00:00:34;;;;;;;0.40;0.40;;;;;;;13.37;76.79;101241.56;679733;28;136289;-75
2022/01/01 00:00:55;;;;;;;0.30;0.30;;;;;;;13.36;76.51;101247.19;682120;28;44414;-75
2022/01/01 00:01:16;;;;;;;0.40;0.40;;;;;;;13.35;76.77;101251.75;683187;28;22246;-74
2022/01/01 00:01:41;;;;;;;8.60;8.18;;;;;;;13.35;76.67;101249.03;680288;29;21540;-74
2022/01/01 00:02:03;;;;;;;16.38;15.55;;;;;;;13.31;76.70;101240.41;677394;28;115660;-74
2022/01/01 00:02:24;;;;;;;142.23;133.43;;;;;;;13.32;76.94;101252.09;680574;29;21585;-74
2022/01/01 00:02:46;;;;;;;299.83;281.30;;;;;;;13.34;76.76;101252.78;679433;29;44412;-74
2022/01/01 00:03:07;;;;;;;197.02;187.15;;;;;;;13.33;76.96;101246.50;679760;28;46294;-74
2022/01/01 00:03:30;;;;;;;124.10;118.43;;;;;;;13.36;76.82;101252.63;679707;28;23467;-75
2022/01/01 00:03:51;;;;;;;135.93;129.50;;;;;;;13.36;76.66;101252.63;678700;29;44295;-74
2022/01/01 00:04:18;;;;;;;148.10;140.98;;;;;;;13.37;76.80;101257.00;679784;29;36383;-74
2022/01/01 00:04:40;;;;;;;219.27;208.25;;;;;;;13.36;76.83;101260.75;679095;28;67339;-74
2022/01/01 00:05:04;;;;;;;259.75;246.43;;;;;;;13.33;76.70;101253.81;677303;29;45431;-73
2022/01/01 00:05:25;;;;;;;226.98;215.60;;;;;;;13.37;76.84;101260.56;676709;28;92185;-75
2022/01/01 00:05:47;;;;;;;205.85;195.90;;;;;;;13.38;76.73;101255.97;676800;29;45401;-73
2022/01/01 00:06:11;;;;;;;154.32;146.90;;;;;;;13.36;76.70;101256.16;677059;29;46407;-73
2022/01/01 00:06:32;;;;;;;53.03;50.40;;;;;;;13.37;76.59;101257.00;676448;29;69498;-74
2022/01/01 00:06:53;;;;;;;75.03;71.22;;;;;;;13.39;76.60;101263.94;677690;29;21702;-74
2022/01/01 00:07:16;;;;;;;78.90;75.13;;;;;;;13.39;76.70;101255.78;677388;29;44383;-73
2022/01/01 00:07:39;;;;;;;79.00;75.25;;;;;;;13.37;76.57;101260.56;680728;28;44404;-75
2022/01/01 00:08:02;;;;;;;89.80;85.68;;;;;;;13.35;76.52;101254.47;681998;28;67942;-73
2022/01/01 00:08:24;;;;;;;91.55;87.38;;;;;;;13.34;76.67;101259.06;680586;28;92220;-74
2022/01/01 00:08:45;;;;;;;90.25;86.07;;;;;;;13.36;76.49;101267.00;680184;29;22523;-74
2022/01/01 00:09:06;;;;;;;75.88;72.28;;;;;;;13.33;76.56;101257.34;678951;28;44395;-73
2022/01/01 00:09:27;;;;;;;46.67;44.38;;;;;;;13.38;76.53;101264.13;680901;28;22413;-73
2022/01/01 00:09:49;;;;;;;37.42;35.58;;;;;;;13.38;76.58;101258.69;680709;29;20477;-73
2022/01/01 00:10:10;;;;;;;40.63;38.67;;;;;;;13.36;76.57;101256.16;679387;29;46406;-72
2022/01/01 00:10:31;;;;;;;48.47;46.17;;;;;;;13.34;76.55;101250.09;680027;28;45236;-74
2022/01/01 00:10:54;;;;;;;46.63;44.33;;;;;;;13.35;76.73;101257.16;683278;28;23457;-73
2022/01/01 00:11:15;;;;;;;50.00;47.50;;;;;;;13.37;76.57;101251.56;682551;28;44395;-74
2022/01/01 00:11:37;;;;;;;42.92;40.83;;;;;;;13.36;76.84;101249.91;683456;28;23305;-73
2022/01/01 00:11:58;;;;;;;36.38;34.58;;;;;;;13.35;76.72;101254.47;682654;28;46329;-73
2022/01/01 00:12:20;;;;;;;49.72;47.33;;;;;;;13.38;76.47;101250.53;680596;29;26757;-74
2022/01/01 00:12:41;;;;;;;39.80;37.90;;;;;;;13.37;76.44;101251.56;681703;28;1558;-74
2022/01/01 00:13:03;;;;;;;48.42;46.08;;;;;;;13.36;76.39;101255.31;680460;28;22481;-73
2022/01/01 00:13:25;;;;;;;49.00;46.63;;;;;;;13.39;76.46;101254.97;679694;29;46404;-74
2022/01/01 00:13:46;;;;;;;50.78;48.28;;;;;;;13.38;76.36;101250.53;679926;29;46404;-74
2022/01/01 00:14:07;;;;;;;48.00;45.70;;;;;;;13.37;76.44;101244.28;680717;28;21521;-74
2022/01/01 00:14:30;;;;;;;54.83;52.22;;;;;;;13.36;76.62;101242.59;683307;28;22408;-74
2022/01/01 00:14:51;;;;;;;51.28;48.80;;;;;;;13.36;76.50;101242.59;680639;28;69012;-74
2022/01/01 00:15:12;;;;;;;44.28;42.15;;;;;;;13.38;76.56;101242.41;682681;28;46351;-74
2022/01/01 00:15:33;;;;;;;57.38;54.55;;;;;;;13.37;76.41;101246.13;683661;28;22394;-74
2022/01/01 00:15:55;;;;;;;72.65;69.20;;;;;;;13.37;76.28;101249.72;683502;28;22402;-74
2022/01/01 00:16:16;;;;;;;80.78;77.05;;;;;;;13.36;76.50;101248.00;682401;28;46296;-74
2022/01/01 00:16:37;;;;;;;80.20;76.55;;;;;;;13.36;76.37;101244.47;683673;28;22381;-73
2022/01/01 00:16:58;;;;;;;60.42;57.58;;;;;;;13.35;76.50;101243.59;683278;28;23435;-74
2022/01/01 00:17:19;;;;;;;71.60;68.30;;;;;;;13.33;76.21;101251.94;683613;28;22214;-74
2022/01/01 00:17:41;;;;;;;84.13;80.20;;;;;;;13.33;76.44;101248.38;683386;28;21552;-73
2022/01/01 00:18:03;;;;;;;93.82;89.45;;;;;;;13.34;76.36;101250.91;682101;28;46323;-74
2022/01/01 00:18:24;;;;;;;100.70;96.15;;;;;;;13.33;76.27;101248.38;681162;29;1466;-74
2022/01/01 00:18:47;;;;;;;90.25;86.05;;;;;;;13.33;76.29;101256.53;680474;29;21389;-74
2022/01/01 00:19:08;;;;;;;105.20;100.28;;;;;;;13.35;76.42;101259.88;677207;28;92120;-74
2022/01/01 00:19:31;;;;;;;40.92;39.08;;;;;;;13.37;76.43;101257.00;680961;28;23486;-74
2022/01/01 00:19:52;;;;;;;0.30;0.30;;;;;;;13.34;76.34;101253.63;680297;28;44673;-74
2022/01/01 00:20:15;;;;;;;0.40;0.40;;;;;;;13.36;76.25;101255.31;681001;28;22338;-73
2022/01/01 00:20:44;;;;;;;0.40;0.40;;;;;;;13.34;76.45;101253.63;682757;28;58725;-73
2022/01/01 00:21:06;;;;;;;0.35;0.35;;;;;;;13.34;76.43;101256.34;683865;28;22469;-73
2022/01/01 00:21:28;;;;;;;0.40;0.40;;;;;;;13.33;76.48;101257.34;682945;28;44317;-73
2022/01/01 00:21:49;;;;;;;0.50;0.50;;;;;;;13.36;76.58;101250.72;682325;28;45254;-73
2022/01/01 00:22:10;;;;;;;0.40;0.40;;;;;;;13.36;76.54;101249.91;680667;28;22403;-72
2022/01/01 00:22:32;;;;;;;0.30;0.30;;;;;;;13.34;76.30;101259.06;681768;28;1586;-73
2022/01/01 00:22:53;;;;;;;0.40;0.40;;;;;;;13.33;76.21;101251.94;678789;28;46175;-72
2022/01/01 00:23:14;;;;;;;0.50;0.50;;;;;;;13.33;76.32;101260.06;680429;29;22406;-72
2022/01/01 00:23:36;;;;;;;0.40;0.40;;;;;;;13.34;76.55;101261.75;681551;28;22418;-73
2022/01/01 00:23:57;;;;;;;0.30;0.30;;;;;;;13.32;76.46;101262.94;679746;28;44389;-73
2022/01/01 00:24:18;;;;;;;0.40;0.40;;;;;;;13.33;76.39;101265.50;683164;28;22401;-72
2022/01/01 00:24:39;;;;;;;0.40;0.40;;;;;;;13.34;76.14;101260.94;683842;28;21348;-73
2022/01/01 00:25:02;;;;;;;0.40;0.40;;;;;;;13.31;76.38;101262.09;683422;28;23325;-72
2022/01/01 00:25:23;;;;;;;0.30;0.30;;;;;;;13.32;76.50;101260.22;682315;28;46365;-72
2022/01/01 00:25:44;;;;;;;0.40;0.40;;;;;;;13.30;76.33;101257.69;683795;28;21239;-73
2022/01/01 00:26:06;;;;;;;0.40;0.40;;;;;;;13.29;76.24;101257.88;683714;28;22419;-72
2022/01/01 00:26:27;;;;;;;0.40;0.40;;;;;;;13.30;76.38;101263.09;684631;28;1274;-72
2022/01/01 00:26:48;;;;;;;0.30;0.30;;;;;;;13.31;76.35;101264.81;683062;28;21528;-72
2022/01/01 00:27:10;;;;;;;0.47;0.47;;;;;;;13.28;76.59;101254.31;682239;28;45269;-73
2022/01/01 00:27:32;;;;;;;0.40;0.40;;;;;;;13.29;76.43;101258.72;682781;28;44402;-72
2022/01/01 00:27:53;;;;;;;0.30;0.30;;;;;;;13.30;76.61;101267.69;681990;28;46197;-73
2022/01/01 00:28:15;;;;;;;0.38;0.38;;;;;;;13.27;76.53;101263.47;680393;29;23271;-73
2022/01/01 00:28:37;;;;;;;0.40;0.40;;;;;;;13.28;76.35;101265.19;680030;28;44243;-73
2022/01/01 00:28:58;;;;;;;0.40;0.40;;;;;;;13.27;76.58;101258.06;678821;28;46385;-73
2022/01/01 00:29:19;;;;;;;0.30;0.30;;;;;;;13.28;76.50;101264.34;680607;29;22374;-73
2022/01/01 00:29:41;;;;;;;0.40;0.40;;;;;;;13.28;76.63;101267.88;681039;28;23478;-73
2022/01/01 00:30:06;;;;;;;0.50;0.50;;;;;;;13.29;76.68;101268.72;681709;28;23475;-73
2022/01/01 00:30:27;;;;;;;0.40;0.40;;;;;;;13.31;76.63;101267.53;680205;28;127996;-72
2022/01/01 00:30:48;;;;;;;0.30;0.30;;;;;;;13.30;76.32;101271.25;680392;29;22661;-73
2022/01/01 00:31:10;;;;;;;0.40;0.40;;;;;;;13.30;76.44;101276.69;680289;29;22179;-72
2022/01/01 00:31:31;;;;;;;0.40;0.40;;;;;;;13.33;76.67;101270.09;680194;28;46330;-72
2022/01/01 00:31:52;;;;;;;0.30;0.30;;;;;;;13.32;76.55;101273.78;679789;28;22443;-73
2022/01/01 00:32:13;;;;;;;0.40;0.40;;;;;;;13.32;76.59;101277.34;680355;29;22394;-71
2022/01/01 00:32:34;;;;;;;0.40;0.40;;;;;;;13.32;76.36;101274.66;681312;28;21542;-72
2022/01/01 00:32:56;;;;;;;0.40;0.40;;;;;;;13.31;76.50;101278.38;683210;28;22428;-72
2022/01/01 00:33:18;;;;;;;0.30;0.30;;;;;;;13.33;76.47;101272.78;682106;28;46428;-72
2022/01/01 00:33:39;;;;;;;0.40;0.40;;;;;;;13.31;76.47;101270.22;683582;28;22401;-72
2022/01/01 00:34:03;;;;;;;0.40;0.40;;;;;;;13.33;76.55;101278.22;682803;28;22311;-73
2022/01/01 00:34:24;;;;;;;0.40;0.40;;;;;;;13.32;76.36;101276.50;683543;28;15000;-72
2022/01/01 00:34:45;;;;;;;0.30;0.30;;;;;;;13.31;76.46;101275.66;682454;28;46297;-72
2022/01/01 00:35:07;;;;;;;0.40;0.40;;;;;;;13.34;76.62;101274.50;683649;28;22406;-72
2022/01/01 00:35:29;;;;;;;0.40;0.40;;;;;;;13.36;76.52;101287.88;683775;28;23494;-71
2022/01/01 00:35:50;;;;;;;0.40;0.40;;;;;;;13.34;76.40;101283.47;682383;28;45054;-72
2022/01/01 00:36:11;;;;;;;0.32;0.32;;;;;;;13.34;76.27;101277.22;683071;28;23466;-72
2022/01/01 00:36:32;;;;;;;0.40;0.40;;;;;;;13.32;76.21;101280.06;683002;28;22199;-71
2022/01/01 00:36:53;;;;;;;0.40;0.40;;;;;;;13.32;76.61;101276.50;682551;28;22494;-72
2022/01/01 00:37:15;;;;;;;0.30;0.30;;;;;;;13.34;76.31;101280.75;683140;28;22391;-72
2022/01/01 00:37:36;;;;;;;0.35;0.35;;;;;;;13.37;76.47;101278.69;680856;28;14906;-72
2022/01/01 00:37:57;;;;;;;0.40;0.40;;;;;;;13.37;76.48;101281.41;680506;28;21554;-71
2022/01/01 00:38:18;;;;;;;0.40;0.40;;;;;;;13.39;76.51;101282.09;680417;29;22275;-72
2022/01/01 00:38:40;;;;;;;0.30;0.30;;;;;;;13.38;76.24;101283.94;681672;28;1509;-72
2022/01/01 00:39:02;;;;;;;0.40;0.40;;;;;;;13.38;76.39;101281.22;678745;28;46151;-72
2022/01/01 00:39:23;;;;;;;0.40;0.40;;;;;;;13.40;76.36;101284.63;681374;29;1915;-72
2022/01/01 00:39:44;;;;;;;0.32;0.32;;;;;;;13.37;76.19;101274.13;681817;29;21339;-72
2022/01/01 00:40:07;;;;;;;0.30;0.30;;;;;;;13.40;76.00;101283.75;683479;28;21195;-72
2022/01/01 00:40:29;;;;;;;0.40;0.40;;;;;;;13.37;76.02;101271.41;680286;28;90582;-71
2022/01/01 00:40:50;;;;;;;0.40;0.40;;;;;;;13.37;76.12;101284.13;681949;28;22405;-72
2022/01/01 00:41:11;;;;;;;0.30;0.30;;;;;;;13.36;76.35;101290.59;683100;28;21538;-72
2022/01/01 00:41:32;;;;;;;0.30;0.30;;;;;;;13.37;76.25;101282.28;683576;28;23296;-72
2022/01/01 00:41:54;;;;;;;0.40;0.40;;;;;;;13.35;76.29;101276.16;682234;28;22391;-72
2022/01/01 00:42:15;;;;;;;0.40;0.40;;;;;;;13.38;76.24;101283.94;681003;29;46313;-72
2022/01/01 00:42:36;;;;;;;0.30;0.30;;;;;;;13.38;76.31;101280.41;683118;28;21558;-72
2022/01/01 00:42:57;;;;;;;0.32;0.32;;;;;;;13.38;76.51;101275.78;683338;28;23507;-73
2022/01/01 00:43:20;;;;;;;0.45;0.45;;;;;;;13.38;76.35;101280.41;683152;28;22354;-72
2022/01/01 00:43:41;;;;;;;0.40;0.40;;;;;;;13.38;76.19;101283.09;682700;28;46435;-73
2022/01/01 00:44:02;;;;;;;0.30;0.30;;;;;;;13.36;76.27;101283.28;682863;28;21488;-73
2022/01/01 00:44:24;;;;;;;0.40;0.40;;;;;;;13.39;76.19;101295.66;682130;28;45242;-72
2022/01/01 00:44:46;;;;;;;0.40;0.40;;;;;;;13.40;76.36;101287.34;682134;28;46316;-73
2022/01/01 00:45:08;;;;;;;0.40;0.40;;;;;;;13.40;76.34;101290.06;682117;28;69475;-73
2022/01/01 00:45:29;;;;;;;0.30;0.30;;;;;;;13.38;76.28;101283.94;684076;28;21483;-72
2022/01/01 00:45:51;;;;;;;0.40;0.40;;;;;;;13.37;76.26;101282.28;683326;28;22422;-72
2022/01/01 00:46:12;;;;;;;0.40;0.40;;;;;;;13.40;76.02;101294.59;681564;28;69580;-72
2022/01/01 00:46:34;;;;;;;0.30;0.30;;;;;;;13.41;76.25;101288.16;684047;28;21315;-72
2022/01/01 00:46:55;;;;;;;0.30;0.30;;;;;;;13.39;76.00;101282.94;682089;28;21341;-72
2022/01/01 00:47:17;;;;;;;0.40;0.40;;;;;;;13.39;76.00;101299.19;683287;28;22360;-72
2022/01/01 00:47:38;;;;;;;0.40;0.40;;;;;;;13.41;76.11;101283.56;682317;28;44423;-73
2022/01/01 00:47:59;;;;;;;0.40;0.40;;;;;;;13.39;76.18;101285.63;680464;29;21073;-73
2022/01/01 00:48:20;;;;;;;0.38;0.38;;;;;;;13.39;76.30;101287.53;680341;29;21519;-72
2022/01/01 00:48:42;;;;;;;0.50;0.50;;;;;;;13.38;76.28;101292.06;680899;28;22449;-73
2022/01/01 00:49:04;;;;;;;0.40;0.40;;;;;;;13.41;76.11;101288.16;678187;28;46538;-73
2022/01/01 00:49:26;;;;;;;0.30;0.30;;;;;;;13.38;76.03;101288.53;680306;28;36591;-73
2022/01/01 00:49:48;;;;;;;0.40;0.40;;;;;;;13.36;76.01;101288.72;679418;29;1525;-72
2022/01/01 00:50:09;;;;;;;0.50;0.50;;;;;;;13.36;76.02;101304.16;679346;29;46341;-72
2022/01/01 00:50:30;;;;;;;0.38;0.38;;;;;;;13.38;75.99;101293.97;680821;28;21522;-72
2022/01/01 00:50:51;;;;;;;0.30;0.30;;;;;;;13.39;76.23;101298.38;680706;28;22410;-71
2022/01/01 00:51:13;;;;;;;0.40;0.40;;;;;;;13.38;76.37;101291.25;677315;29;21523;-72
2022/01/01 00:51:34;;;;;;;0.40;0.40;;;;;;;13.39;76.07;101288.34;676847;29;69375;-74
2022/01/01 00:51:56;;;;;;;0.30;0.30;;;;;;;13.38;76.15;101285.81;676902;29;44676;-73
2022/01/01 00:52:17;;;;;;;0.30;0.30;;;;;;;13.38;76.29;101286.66;676881;29;45143;-72
2022/01/01 00:52:39;;;;;;;0.40;0.40;;;;;;;13.37;76.33;101284.13;679036;29;22410;-73
2022/01/01 00:53:00;;;;;;;0.40;0.40;;;;;;;13.34;76.26;101290.78;676226;29;1147;-72
2022/01/01 00:53:21;;;;;;;0.30;0.30;;;;;;;13.35;76.35;101284.31;676986;29;44329;-72
2022/01/01 00:53:43;;;;;;;0.30;0.30;;;;;;;13.32;76.42;101288.22;678603;29;22410;-73
2022/01/01 00:54:04;;;;;;;0.40;0.40;;;;;;;13.34;76.31;101288.06;679629;28;22385;-71
2022/01/01 00:54:26;;;;;;;0.40;0.40;;;;;;;13.35;76.33;101287.00;680656;28;22415;-72
2022/01/01 00:54:47;;;;;;;0.30;0.30;;;;;;;13.34;76.27;101282.63;680755;28;45265;-72
2022/01/01 00:55:09;;;;;;;0.30;0.30;;;;;;;13.33;76.37;101300.75;684036;28;21551;-72
2022/01/01 00:55:31;;;;;;;0.40;0.40;;;;;;;13.36;76.20;101282.44;683526;28;44440;-72
2022/01/01 00:55:52;;;;;;;0.40;0.40;;;;;;;13.38;76.51;101296.66;682746;28;45043;-72
2022/01/01 00:56:13;;;;;;;0.30;0.30;;;;;;;13.36;76.26;101294.13;683157;28;22394;-72
2022/01/01 00:56:34;;;;;;;0.40;0.40;;;;;;;13.33;76.25;101294.50;684078;28;22350;-71
2022/01/01 00:56:56;;;;;;;0.40;0.40;;;;;;;13.34;76.48;101297.03;680725;28;20575;-72
2022/01/01 00:57:17;;;;;;;0.30;0.30;;;;;;;13.33;76.29;101289.06;680173;29;39704;-73
2022/01/01 00:57:38;;;;;;;0.38;0.38;;;;;;;13.34;76.59;101296.19;680845;28;22398;-72
2022/01/01 00:57:59;;;;;;;0.40;0.40;;;;;;;13.33;76.50;101286.38;680493;28;22206;-73
2022/01/01 00:58:21;;;;;;;0.30;0.30;;;;;;;13.34;76.37;101293.50;678998;29;21309;-72
2022/01/01 00:58:42;;;;;;;0.30;0.30;;;;;;;13.36;76.34;101296.03;680611;28;46599;-73
2022/01/01 00:59:04;;;;;;;0.40;0.40;;;;;;;13.32;76.47;101290.94;682967;28;8699;-72
2022/01/01 00:59:25;;;;;;;0.40;0.40;;;;;;;13.34;76.28;101302.47;683297;28;22413;-73
2022/01/01 00:59:47;;;;;;;0.30;0.30;;;;;;;13.34;76.43;101294.31;682626;28;44304;-72
2022/01/01 01:00:11;;;;;;;0.30;0.30;;;;;;;13.34;76.52;101297.03;682421;28;45249;-72
2022/01/01 01:00:32;;;;;;;0.45;0.45;;;;;;;13.34;76.51;101305.16;682285;28;67981;-72
2022/01/01 01:00:53;;;;;;;0.40;0.40;;;;;;;13.33;76.45;101294.50;683905;28;21544;-72
2022/01/01 01:01:15;;;;;;;0.30;0.30;;;;;;;13.32;76.37;101315.34;683170;28;22271;-72
2022/01/01 01:01:37;;;;;;;0.30;0.30;;;;;;;13.36;76.50;101306.88;683102;28;46405;-72
2022/01/01 01:01:58;;;;;;;0.40;0.40;;;;;;;13.38;76.31;101305.66;682546;28;45266;-72
2022/01/01 01:02:19;;;;;;;0.30;0.30;;;;;;;13.37;76.30;101303.13;682186;28;46197;-71
2022/01/01 01:02:41;;;;;;;0.32;0.32;;;;;;;13.34;76.53;101299.75;684099;28;21550;-72
2022/01/01 01:03:07;;;;;;;0.45;0.45;;;;;;;13.33;76.35;101306.19;683008;28;46333;-72
2022/01/01 01:03:28;;;;;;;0.30;0.30;;;;;;;13.33;76.38;101302.63;680807;28;115030;-72
2022/01/01 01:03:49;;;;;;;0.30;0.30;;;;;;;13.32;76.47;101299.06;683726;28;23483;-73
2022/01/01 01:04:12;;;;;;;0.40;0.40;;;;;;;13.32;76.47;101307.19;683330;28;5154;-72
2022/01/01 01:04:33;;;;;;;0.40;0.40;;;;;;;13.32;76.47;101309.91;681142;28;90290;-72
2022/01/01 01:04:54;;;;;;;0.30;0.30;;;;;;;13.34;76.60;101301.63;683830;28;22414;-71
2022/01/01 01:05:15;;;;;;;0.30;0.30;;;;;;;13.34;76.56;101310.59;683172;28;23495;-72
2022/01/01 01:05:39;;;;;;;0.40;0.40;;;;;;;13.32;76.46;101312.63;683908;28;22327;-72
2022/01/01 01:06:00;;;;;;;0.40;0.40;;;;;;;13.30;76.58;101308.41;681832;28;68512;-71
2022/01/01 01:06:21;;;;;;;0.30;0.30;;;;;;;13.31;76.63;101318.22;683196;28;22304;-72
2022/01/01 01:06:43;;;;;;;0.30;0.30;;;;;;;13.30;76.77;101317.38;683332;28;22425;-71
2022/01/01 01:07:04;;;;;;;0.40;0.40;;;;;;;13.30;76.66;101311.94;682723;28;46357;-72
2022/01/01 01:07:25;;;;;;;0.40;0.40;;;;;;;13.29;76.60;101317.53;683304;28;22440;-72
2022/01/01 01:07:47;;;;;;;0.30;0.30;;;;;;;13.32;76.66;101317.19;683035;28;22378;-72
2022/01/01 01:08:10;;;;;;;0.30;0.30;;;;;;;13.33;76.49;101316.22;682557;28;46308;-71
2022/01/01 01:08:31;;;;;;;0.40;0.40;;;;;;;13.35;76.73;101319.56;680763;28;69648;-72
2022/01/01 01:08:53;;;;;;;0.38;0.38;;;;;;;13.34;76.71;101315.19;682785;28;22211;-72
2022/01/01 01:09:16;;;;;;;0.30;0.30;;;;;;;13.38;76.49;101318.38;682058;28;46374;-72
2022/01/01 01:09:37;;;;;;;0.40;0.40;;;;;;;13.36;76.42;101315.00;682742;28;46385;-71
2022/01/01 01:09:58;;;;;;;0.40;0.40;;;;;;;13.36;76.42;101321.28;683262;28;21474;-72
2022/01/01 01:10:20;;;;;;;0.30;0.30;;;;;;;13.36;76.38;101313.13;683063;28;23500;-72
2022/01/01 01:10:44;;;;;;;0.30;0.30;;;;;;;13.36;76.75;101320.44;681217;28;69174;-72
2022/01/01 01:11:07;;;;;;;0.40;0.40;;;;;;;13.32;76.60;101318.06;681880;28;69196;-71
2022/01/01 01:11:29;;;;;;;0.40;0.40;;;;;;;13.38;76.42;101315.66;680513;28;90863;-72
2022/01/01 01:11:52;;;;;;;0.30;0.30;;;;;;;13.39;76.51;101323.63;682580;28;45252;-72
2022/01/01 01:12:19;;;;;;;0.32;0.32;;;;;;;13.42;76.22;101325.13;681732;28;67501;-74
2022/01/01 01:12:44;;;;;;;0.40;0.40;;;;;;;13.41;76.32;101323.44;679215;28;137988;-72
2022/01/01 01:13:07;;;;;;;0.30;0.30;;;;;;;13.41;76.09;101324.28;681179;28;92287;-72
2022/01/01 01:13:31;;;;;;;0.40;0.40;;;;;;;13.40;76.29;101325.31;681122;28;92290;-72
2022/01/01 01:13:58;;;;;;;0.40;0.40;;;;;;;13.40;76.31;101325.31;680348;28;92277;-72
2022/01/01 01:14:20;;;;;;;0.30;0.30;;;;;;;13.37;76.22;101324.81;679459;28;136480;-72
2022/01/01 01:14:42;;;;;;;0.30;0.30;;;;;;;13.35;76.20;101311.44;681429;28;67553;-73
2022/01/01 01:15:04;;;;;;;0.40;0.40;;;;;;;13.34;76.36;101323.31;682610;28;45273;-72
2022/01/01 01:15:26;;;;;;;0.40;0.40;;;;;;;13.36;76.38;101323.16;682961;28;31590;-75
2022/01/01 01:15:48;;;;;;;0.30;0.30;;;;;;;13.35;76.34;101327.72;682353;28;45281;-72
2022/01/01 01:16:09;;;;;;;0.30;0.30;;;;;;;13.36;76.32;101325.88;683513;28;22547;-72
2022/01/01 01:16:30;;;;;;;0.45;0.45;;;;;;;13.36;76.60;101325.88;683462;28;21531;-73
2022/01/01 01:16:53;;;;;;;0.40;0.40;;;;;;;13.34;76.36;101324.16;683259;28;22403;-72
2022/01/01 01:17:14;;;;;;;0.30;0.30;;;;;;;13.34;76.37;101321.44;677433;29;93706;-72
2022/01/01 01:17:36;;;;;;;0.40;0.40;;;;;;;13.35;76.52;101322.28;680047;28;23325;-73
2022/01/01 01:17:57;;;;;;;0.47;0.47;;;;;;;13.33;76.54;101316.22;680602;28;22374;-72
2022/01/01 01:18:19;;;;;;;0.40;0.40;;;;;;;13.32;76.56;101328.03;680117;29;23498;-73
2022/01/01 01:18:41;;;;;;;0.30;0.30;;;;;;;13.31;76.54;101319.06;679802;28;46327;-73
2022/01/01 01:19:02;;;;;;;0.40;0.40;;;;;;;13.31;76.41;101327.19;679383;28;45561;-73
2022/01/01 01:19:25;;;;;;;0.40;0.40;;;;;;;13.27;76.75;101317.72;683356;28;22414;-74
2022/01/01 01:19:47;;;;;;;0.30;0.30;;;;;;;13.28;76.37;101321.31;681371;28;67417;-73
2022/01/01 01:20:09;;;;;;;0.30;0.30;;;;;;;13.34;76.64;101321.44;682847;28;46258;-73
2022/01/01 01:20:31;;;;;;;0.40;0.40;;;;;;;13.37;76.29;101324.81;682143;28;46349;-73
2022/01/01 01:20:52;;;;;;;0.35;0.35;;;;;;;13.36;76.44;101318.56;683001;28;46304;-73
2022/01/01 01:21:14;;;;;;;0.30;0.30;;;;;;;13.33;76.27;101318.91;683180;28;22417;-73
2022/01/01 01:21:35;;;;;;;0.30;0.30;;;;;;;13.33;76.56;101318.91;682711;28;45262;-72
2022/01/01 01:21:57;;;;;;;0.40;0.40;;;;;;;13.33;76.40;101324.34;683763;28;22410;-72
2022/01/01 01:22:19;;;;;;;0.40;0.40;;;;;;;13.34;76.68;101320.63;682695;28;30938;-72
2022/01/01 01:22:40;;;;;;;0.30;0.30;;;;;;;13.36;76.51;101318.56;682325;28;48706;-73
2022/01/01 01:23:02;;;;;;;0.30;0.30;;;;;;;13.35;76.34;101325.00;683870;28;23521;-73
2022/01/01 01:23:24;;;;;;;0.40;0.40;;;;;;;13.32;76.37;101318.06;682024;28;46361;-72
2022/01/01 01:23:46;;;;;;;0.32;0.32;;;;;;;13.31;76.45;101326.38;682117;28;44408;-73
2022/01/01 01:24:07;;;;;;;0.30;0.30;;;;;;;13.28;76.68;101319.44;681920;28;46342;-72
2022/01/01 01:24:28;;;;;;;0.40;0.40;;;;;;;13.27;76.59;101331.28;683374;28;21531;-71
2022/01/01 01:24:53;;;;;;;0.40;0.40;;;;;;;13.28;76.57;101327.56;683499;28;22405;-73
2022/01/01 01:25:14;;;;;;;0.30;0.30;;;;;;;13.27;76.69;101322.31;680532;28;90720;-73
2022/01/01 01:25:39;;;;;;;0.30;0.30;;;;;;;13.29;76.72;101328.41;682665;28;45379;-72
2022/01/01 01:26:01;;;;;;;0.40;0.40;;;;;;;13.32;76.80;101333.47;680243;28;115311;-72
2022/01/01 01:26:23;;;;;;;0.40;0.40;;;;;;;13.32;76.46;101328.91;682271;28;46389;-72
2022/01/01 01:26:49;;;;;;;0.30;0.30;;;;;;;13.31;76.59;101323.66;679389;29;46188;-75
2022/01/01 01:27:11;;;;;;;0.32;0.32;;;;;;;13.29;76.80;101329.25;676679;29;115237;-74
2022/01/01 01:27:34;;;;;;;0.40;0.40;;;;;;;13.29;76.82;101329.25;679302;28;45151;-73
2022/01/01 01:27:55;;;;;;;0.30;0.30;;;;;;;13.29;76.73;101331.97;679164;28;69461;-72
2022/01/01 01:28:17;;;;;;;0.30;0.30;;;;;;;13.32;76.81;101328.91;679452;29;45385;-73
2022/01/01 01:28:45;;;;;;;0.40;0.40;;;;;;;13.32;76.81;101337.03;678104;29;46407;-73
2022/01/01 01:29:06;;;;;;;0.38;0.38;;;;;;;13.32;76.66;101336.19;676061;28;137731;-72
2022/01/01 01:29:29;;;;;;;0.30;0.30;;;;;;;13.31;76.63;101339.94;680217;28;23609;-72
2022/01/01 01:29:52;;;;;;;0.40;0.40;;;;;;;13.31;76.62;101340.78;678851;29;69302;-73
2022/01/01 01:30:15;;;;;;;0.40;0.40;;;;;;;13.31;76.69;101346.19;679694;29;46226;-73
2022/01/01 01:30:37;;;;;;;0.30;0.30;;;;;;;13.30;76.86;101347.22;680741;28;69306;-72
2022/01/01 01:30:58;;;;;;;0.30;0.30;;;;;;;13.29;76.62;101331.97;684327;28;852;-73
2022/01/01 01:31:20;;;;;;;0.40;0.40;;;;;;;13.32;76.92;101344.31;683165;28;22418;-73
2022/01/01 01:31:41;;;;;;;0.40;0.40;;;;;;;13.33;76.60;101346.03;682607;28;46874;-73
2022/01/01 01:32:03;;;;;;;0.30;0.30;;;;;;;13.31;76.61;101348.91;684046;28;22421;-71
2022/01/01 01:32:24;;;;;;;0.32;0.32;;;;;;;13.30;76.54;101344.50;684218;28;1034;-70
2022/01/01 01:32:46;;;;;;;0.50;0.50;;;;;;;13.34;76.65;101345.88;677495;29;22374;-70
2022/01/01 01:33:09;;;;;;;0.40;0.40;;;;;;;13.34;76.39;101353.16;676522;29;67170;-70
2022/01/01 01:33:30;;;;;;;0.30;0.30;;;;;;;13.32;76.47;101350.59;674193;29;69204;-71
2022/01/01 01:33:51;;;;;;;0.35;0.35;;;;;;;13.31;76.55;101343.47;674499;29;22304;-70
2022/01/01 01:34:13;;;;;;;0.40;0.40;;;;;;;13.29;76.41;101348.25;675479;29;22391;-70
2022/01/01 01:34:36;;;;;;;0.30;0.30;;;;;;;13.31;76.81;101343.47;676815;29;1639;-70
2022/01/01 01:34:57;;;;;;;0.30;0.30;;;;;;;13.30;76.86;101343.66;676436;29;68362;-70
2022/01/01 01:35:19;;;;;;;0.40;0.40;;;;;;;13.26;76.68;101351.31;677291;29;1268;-70
2022/01/01 01:35:40;;;;;;;0.40;0.40;;;;;;;13.29;76.85;101350.09;677832;29;45366;-70
2022/01/01 01:36:01;;;;;;;0.30;0.30;;;;;;;13.29;76.71;101352.81;681254;28;1479;-70
2022/01/01 01:36:22;;;;;;;0.30;0.30;;;;;;;13.29;76.97;101356.38;680920;29;22894;-70
2022/01/01 01:36:44;;;;;;;0.40;0.40;;;;;;;13.29;76.93;101347.38;680806;28;23475;-70
2022/01/01 01:37:05;;;;;;;0.40;0.40;;;;;;;13.29;76.82;101361.81;680511;28;46110;-70
2022/01/01 01:37:28;;;;;;;0.30;0.30;;;;;;;13.29;76.79;101364.53;680662;28;22212;-70
2022/01/01 01:37:49;;;;;;;0.30;0.30;;;;;;;13.33;76.82;101367.75;678431;28;67514;-70
2022/01/01 01:38:12;;;;;;;0.40;0.40;;;;;;;13.34;76.69;101353.16;680900;29;22980;-71
2022/01/01 01:38:36;;;;;;;0.30;0.30;;;;;;;13.35;76.66;101354.84;679476;28;67619;-70
2022/01/01 01:38:57;;;;;;;0.30;0.30;;;;;;;13.32;76.83;101353.31;677530;28;90779;-70
2022/01/01 01:39:18;;;;;;;0.40;0.40;;;;;;;13.36;76.68;101356.53;681749;28;22393;-70
2022/01/01 01:39:40;;;;;;;0.38;0.38;;;;;;;13.38;76.55;101359.91;683984;28;22394;-70
2022/01/01 01:40:04;;;;;;;0.30;0.30;;;;;;;13.41;76.55;101351.41;684204;28;1198;-70
2022/01/01 01:40:25;;;;;;;0.30;0.30;;;;;;;13.37;76.57;101357.38;682195;28;69420;-70
2022/01/01 01:40:46;;;;;;;0.40;0.40;;;;;;;13.40;76.67;101351.59;680369;29;40368;-71
2022/01/01 01:41:10;;;;;;;0.40;0.40;;;;;;;13.38;76.47;101346.34;680445;28;22750;-70
2022/01/01 01:41:31;;;;;;;0.30;0.30;;;;;;;13.36;76.38;101351.13;679459;28;69349;-70
2022/01/01 01:41:52;;;;;;;0.40;0.40;;;;;;;13.37;76.59;101347.38;680059;29;44391;-70
2022/01/01 01:42:14;;;;;;;0.40;0.40;;;;;;;13.36;76.50;101347.56;680180;29;22407;-70